Time;durP1;ratioP1;P1;durP2;ratioP2;P2;SDS_P1;SDS_P2;PMS_P1;PMS_P2;Temp;Humidity;BMP_temperature;BMP_pressure;BME280_temperature;BME280_humidity;BME280_pressure;Samples;Min_cycle;Max_cycle;Signal;HPM_P1;HPM_P2
2021/11/06 00:01:59;;;;;;;2.70;2.58;;;4.10;99.90;;;;;;5032887;28;20226;-78
2021/11/06 00:04:27;;;;;;;2.40;2.30;;;4.00;99.90;;;;;;5036764;28;20233;-78
2021/11/06 00:06:54;;;;;;;2.08;1.98;;;4.10;99.90;;;;;;5036198;28;20228;-78
2021/11/06 00:09:21;;;;;;;2.30;2.20;;;4.10;99.90;;;;;;5035304;28;20232;-77
2021/11/06 00:11:48;;;;;;;2.38;2.28;;;4.10;99.90;;;;;;5033677;28;20231;-78
2021/11/06 00:14:17;;;;;;;2.55;2.42;;;4.10;99.90;;;;;;5037913;28;20223;-78
2021/11/06 00:16:44;;;;;;;2.20;2.10;;;4.10;99.90;;;;;;5035555;28;20227;-78
2021/11/06 00:19:11;;;;;;;1.90;1.80;;;4.10;99.90;;;;;;5036350;28;20583;-78
2021/11/06 00:21:38;;;;;;;2.50;2.40;;;4.10;99.90;;;;;;5022442;28;20219;-77
2021/11/06 00:24:05;;;;;;;2.55;2.45;;;4.00;99.90;;;;;;5032943;28;20234;-77
2021/11/06 00:26:33;;;;;;;2.17;2.08;;;4.00;99.90;;;;;;5034551;28;20233;-77
2021/11/06 00:29:00;;;;;;;1.90;1.80;;;4.00;99.90;;;;;;5033301;28;20261;-77
2021/11/06 00:31:28;;;;;;;1.98;1.88;;;4.00;99.90;;;;;;5034210;28;20219;-77
2021/11/06 00:33:55;;;;;;;2.40;2.30;;;4.00;99.90;;;;;;5034881;28;20221;-77
2021/11/06 00:36:24;;;;;;;2.72;2.63;;;4.00;99.90;;;;;;5032783;28;20219;-77
2021/11/06 00:38:51;;;;;;;2.33;2.22;;;4.00;99.90;;;;;;5034208;28;20222;-77
2021/11/06 00:41:19;;;;;;;2.17;2.08;;;4.00;99.90;;;;;;5036878;28;20637;-78
2021/11/06 00:43:46;;;;;;;2.13;2.03;;;4.00;99.90;;;;;;5038441;28;20821;-77
2021/11/06 00:46:13;;;;;;;2.28;2.05;;;4.00;99.90;;;;;;5042371;28;20226;-78
2021/11/06 00:48:41;;;;;;;2.67;2.58;;;4.00;99.90;;;;;;5038878;28;20227;-78
2021/11/06 00:51:09;;;;;;;2.10;2.00;;;3.90;99.90;;;;;;5022143;28;20686;-78
2021/11/06 00:53:36;;;;;;;2.28;2.17;;;3.90;99.90;;;;;;5040751;28;20226;-78
2021/11/06 00:56:03;;;;;;;2.25;2.15;;;3.90;99.90;;;;;;5040102;28;20226;-78
2021/11/06 00:58:30;;;;;;;2.33;2.22;;;3.90;99.90;;;;;;5038761;28;20230;-77
2021/11/06 01:00:57;;;;;;;2.30;2.20;;;4.00;99.90;;;;;;5040650;28;20750;-77
2021/11/06 01:03:24;;;;;;;2.50;2.40;;;3.90;99.90;;;;;;5042063;28;20340;-77
2021/11/06 01:05:53;;;;;;;2.20;2.10;;;3.90;99.90;;;;;;5043254;28;20238;-78
2021/11/06 01:08:20;;;;;;;2.42;2.28;;;3.90;99.90;;;;;;5047109;28;20235;-78
2021/11/06 01:10:47;;;;;;;2.67;2.58;;;3.90;99.90;;;;;;5044182;28;20230;-78
2021/11/06 01:13:17;;;;;;;2.40;2.30;;;3.80;99.90;;;;;;5042317;28;20230;-78
2021/11/06 01:15:44;;;;;;;2.17;2.08;;;3.80;99.90;;;;;;5044167;28;20313;-78
2021/11/06 01:18:12;;;;;;;2.45;2.35;;;3.80;99.90;;;;;;5045896;28;20211;-78
2021/11/06 01:20:39;;;;;;;2.47;2.38;;;3.80;99.90;;;;;;5043093;28;20580;-77
2021/11/06 01:23:08;;;;;;;1.95;1.85;;;3.80;99.90;;;;;;5044723;28;20223;-77
2021/11/06 01:25:36;;;;;;;2.20;2.10;;;3.70;99.90;;;;;;5044099;28;20218;-77
2021/11/06 01:28:03;;;;;;;2.33;2.22;;;3.70;99.90;;;;;;5045052;28;20237;-77
2021/11/06 01:30:30;;;;;;;2.53;2.42;;;3.60;99.90;;;;;;5042150;28;20227;-77
2021/11/06 01:32:58;;;;;;;2.33;2.22;;;3.60;99.90;;;;;;5042892;28;20227;-77
2021/11/06 01:35:25;;;;;;;2.65;2.47;;;3.60;99.90;;;;;;5044701;28;20222;-78
2021/11/06 01:37:52;;;;;;;5.03;2.47;;;3.60;99.90;;;;;;5041102;28;20595;-78
2021/11/06 01:40:21;;;;;;;1.92;1.83;;;3.50;99.90;;;;;;5043115;28;20226;-77
2021/11/06 01:42:49;;;;;;;2.20;2.10;;;3.50;99.90;;;;;;5043602;28;20234;-78
2021/11/06 01:45:19;;;;;;;2.28;2.17;;;3.50;99.90;;;;;;5040518;28;20219;-77
2021/11/06 01:47:46;;;;;;;2.38;2.28;;;3.60;99.90;;;;;;5045977;28;20226;-77
2021/11/06 01:50:15;;;;;;;2.50;2.40;;;3.60;99.90;;;;;;5037331;28;20227;-77
2021/11/06 01:52:42;;;;;;;2.35;2.25;;;3.60;99.90;;;;;;5047260;28;20573;-78
2021/11/06 01:55:10;;;;;;;2.30;2.20;;;3.50;99.90;;;;;;5038766;28;20215;-77
2021/11/06 01:57:39;;;;;;;2.40;2.30;;;3.50;99.90;;;;;;5045427;28;20219;-78
2021/11/06 02:00:08;;;;;;;2.22;2.13;;;3.50;99.90;;;;;;5044484;28;20227;-77
2021/11/06 02:02:35;;;;;;;2.70;2.60;;;3.40;99.90;;;;;;5038428;28;20231;-77
2021/11/06 02:05:03;;;;;;;2.45;2.35;;;3.50;99.90;;;;;;5043387;28;22634;-79
2021/11/06 02:07:30;;;;;;;2.70;2.60;;;3.50;99.90;;;;;;5043664;28;20222;-77
2021/11/06 02:09:57;;;;;;;2.42;2.33;;;3.60;99.90;;;;;;5043244;28;20586;-77
2021/11/06 02:12:26;;;;;;;2.35;2.25;;;3.60;99.90;;;;;;5048055;28;20712;-78
2021/11/06 02:14:54;;;;;;;2.47;2.38;;;3.60;99.90;;;;;;5042506;28;20214;-77
2021/11/06 02:17:22;;;;;;;2.28;2.13;;;3.60;99.90;;;;;;5040887;28;20255;-77
2021/11/06 02:19:49;;;;;;;2.38;2.28;;;3.60;99.90;;;;;;5011053;28;20226;-77
2021/11/06 02:22:18;;;;;;;2.13;2.03;;;3.50;99.90;;;;;;5049054;28;20219;-77
2021/11/06 02:24:45;;;;;;;2.20;2.10;;;3.40;99.90;;;;;;5042260;28;20226;-77
2021/11/06 02:27:12;;;;;;;2.70;2.60;;;3.30;99.90;;;;;;5042954;28;20230;-77
2021/11/06 02:29:39;;;;;;;2.30;2.20;;;3.30;99.90;;;;;;5038943;28;20241;-77
2021/11/06 02:32:08;;;;;;;2.72;2.63;;;3.30;99.90;;;;;;5042632;28;20235;-77
2021/11/06 02:34:35;;;;;;;2.25;2.15;;;3.30;99.90;;;;;;5042916;28;20226;-78
2021/11/06 02:37:02;;;;;;;2.20;2.10;;;3.30;99.90;;;;;;5039471;28;20218;-77
2021/11/06 02:39:30;;;;;;;2.72;2.63;;;3.20;99.90;;;;;;5040394;28;20229;-77
2021/11/06 02:42:00;;;;;;;2.65;2.55;;;3.20;99.90;;;;;;5040942;28;20328;-77
2021/11/06 02:44:27;;;;;;;2.55;2.45;;;3.20;99.90;;;;;;5040010;28;20308;-77
2021/11/06 02:46:54;;;;;;;2.80;2.70;;;3.20;99.90;;;;;;5041240;28;20634;-77
2021/11/06 02:49:22;;;;;;;2.75;2.63;;;3.20;99.90;;;;;;5036823;28;20587;-77
2021/11/06 02:51:49;;;;;;;2.42;2.33;;;3.20;99.90;;;;;;5045203;28;20226;-77
2021/11/06 02:54:16;;;;;;;2.20;2.10;;;3.30;99.90;;;;;;5040789;28;20219;-77
2021/11/06 02:56:45;;;;;;;2.35;2.25;;;3.20;99.90;;;;;;5039981;28;20628;-77
2021/11/06 02:59:12;;;;;;;2.38;2.28;;;3.20;99.90;;;;;;5040466;28;20226;-77
2021/11/06 03:01:39;;;;;;;2.28;2.17;;;3.10;99.90;;;;;;5043082;28;20221;-77
2021/11/06 03:04:09;;;;;;;2.38;2.28;;;3.10;99.90;;;;;;5042721;28;20230;-77
2021/11/06 03:06:36;;;;;;;2.60;2.50;;;3.00;99.90;;;;;;5039534;28;20309;-77
2021/11/06 03:09:05;;;;;;;2.50;2.40;;;3.00;99.90;;;;;;5040421;28;20724;-77
2021/11/06 03:11:32;;;;;;;2.22;2.13;;;3.00;99.90;;;;;;5042215;28;20242;-78
2021/11/06 03:14:02;;;;;;;2.60;2.47;;;3.10;99.90;;;;;;5041410;28;20288;-78
2021/11/06 03:16:29;;;;;;;2.45;2.35;;;3.10;99.90;;;;;;5041761;28;20712;-77
2021/11/06 03:18:56;;;;;;;2.45;2.35;;;3.10;99.90;;;;;;5042119;28;20226;-78
2021/11/06 03:21:27;;;;;;;2.05;1.95;;;3.10;99.90;;;;;;5041612;28;20583;-78
2021/11/06 03:23:54;;;;;;;2.65;2.55;;;3.10;99.90;;;;;;5045222;28;20226;-77
2021/11/06 03:26:21;;;;;;;2.25;2.15;;;3.20;99.90;;;;;;5038739;28;21011;-77
2021/11/06 03:28:49;;;;;;;2.33;2.22;;;3.20;99.90;;;;;;5040104;28;20223;-77
2021/11/06 03:31:18;;;;;;;1.92;1.83;;;3.20;99.90;;;;;;5043777;28;20226;-77
2021/11/06 03:33:46;;;;;;;2.20;2.10;;;3.10;99.90;;;;;;5041382;28;20226;-77
2021/11/06 03:36:14;;;;;;;2.03;1.92;;;3.10;99.90;;;;;;5040725;28;20564;-77
2021/11/06 03:38:41;;;;;;;1.92;1.83;;;3.00;99.90;;;;;;5038259;28;20280;-77
2021/11/06 03:41:08;;;;;;;2.13;2.03;;;2.90;99.90;;;;;;5021377;28;20223;-77
2021/11/06 03:43:37;;;;;;;2.17;2.08;;;2.80;99.90;;;;;;5038196;28;20297;-77
2021/11/06 03:46:05;;;;;;;2.40;2.30;;;2.70;99.90;;;;;;5043434;28;21063;-77
2021/11/06 03:48:33;;;;;;;2.50;2.40;;;2.80;99.90;;;;;;5041226;28;20222;-77
2021/11/06 03:51:01;;;;;;;2.42;2.33;;;2.80;99.90;;;;;;5039510;28;20728;-77
2021/11/06 03:53:29;;;;;;;2.78;2.67;;;2.80;99.90;;;;;;5040969;28;20232;-77
2021/11/06 03:55:56;;;;;;;2.67;2.58;;;2.70;99.90;;;;;;5039504;28;20232;-77
2021/11/06 03:58:23;;;;;;;2.22;2.13;;;2.70;99.90;;;;;;5041584;28;20224;-77
2021/11/06 04:00:51;;;;;;;2.70;2.60;;;2.70;99.90;;;;;;5040289;28;20233;-78
2021/11/06 04:03:18;;;;;;;1.98;1.88;;;2.70;99.90;;;;;;5043127;28;20225;-77
2021/11/06 04:05:47;;;;;;;2.72;2.60;;;2.70;99.90;;;;;;5040464;28;20635;-78
2021/11/06 04:08:16;;;;;;;2.20;2.10;;;2.70;99.90;;;;;;5041582;28;20238;-77
2021/11/06 04:10:44;;;;;;;2.30;2.20;;;2.70;99.90;;;;;;5037471;28;20238;-77
2021/11/06 04:13:11;;;;;;;2.50;2.30;;;2.80;99.90;;;;;;5044593;28;20234;-77
2021/11/06 04:15:38;;;;;;;2.08;1.98;;;2.80;99.90;;;;;;5037390;28;20687;-78
2021/11/06 04:18:06;;;;;;;2.40;2.30;;;2.90;99.90;;;;;;5044837;28;20218;-77
2021/11/06 04:20:33;;;;;;;2.38;2.28;;;2.90;99.90;;;;;;5039133;28;20237;-77
2021/11/06 04:23:02;;;;;;;2.40;2.30;;;2.90;99.90;;;;;;5028942;28;20222;-78
2021/11/06 04:25:29;;;;;;;2.40;2.30;;;3.00;99.90;;;;;;5040484;28;20226;-78
2021/11/06 04:27:56;;;;;;;2.40;2.30;;;2.90;99.90;;;;;;5040613;28;20244;-77
2021/11/06 04:30:23;;;;;;;2.70;2.60;;;2.90;99.90;;;;;;5035864;28;20219;-78
2021/11/06 04:32:51;;;;;;;2.38;2.28;;;2.90;99.90;;;;;;5040486;28;20222;-77
2021/11/06 04:35:19;;;;;;;2.63;2.53;;;2.90;99.90;;;;;;5039685;28;20230;-77
2021/11/06 04:37:46;;;;;;;2.38;2.28;;;2.80;99.90;;;;;;5039098;28;20215;-78
2021/11/06 04:40:14;;;;;;;2.38;2.28;;;2.80;99.90;;;;;;5033060;28;20593;-77
2021/11/06 04:42:42;;;;;;;2.22;2.13;;;2.80;99.90;;;;;;5042569;28;20593;-77
2021/11/06 04:45:11;;;;;;;2.78;2.63;;;2.80;99.90;;;;;;5038880;28;20241;-78
2021/11/06 04:47:38;;;;;;;2.63;2.53;;;2.90;99.90;;;;;;5042021;28;20222;-78
2021/11/06 04:50:09;;;;;;;2.30;2.20;;;2.80;99.90;;;;;;5040031;28;20739;-77
2021/11/06 04:52:37;;;;;;;2.38;2.28;;;2.80;99.90;;;;;;5040076;28;20231;-77
2021/11/06 04:55:05;;;;;;;2.20;2.10;;;2.80;99.90;;;;;;5037218;28;20799;-78
2021/11/06 04:57:34;;;;;;;2.58;2.47;;;2.80;99.90;;;;;;5041605;28;20234;-78
2021/11/06 05:00:01;;;;;;;2.70;2.60;;;2.70;99.90;;;;;;5039712;28;20230;-78
2021/11/06 05:02:28;;;;;;;2.40;2.30;;;2.70;99.90;;;;;;5040366;28;21114;-77
2021/11/06 05:04:55;;;;;;;2.58;2.47;;;2.70;99.90;;;;;;5037235;28;20218;-78
2021/11/06 05:07:24;;;;;;;2.72;2.63;;;2.70;99.90;;;;;;5036633;28;20227;-78
2021/11/06 05:09:51;;;;;;;2.47;2.38;;;2.80;99.90;;;;;;5036798;28;20226;-77
2021/11/06 05:12:19;;;;;;;2.20;2.10;;;2.70;99.90;;;;;;5037203;28;20245;-77
2021/11/06 05:14:48;;;;;;;2.55;2.45;;;2.70;99.90;;;;;;5037379;28;20237;-77
2021/11/06 05:17:16;;;;;;;2.22;2.13;;;2.80;99.90;;;;;;5037081;28;20216;-77
2021/11/06 05:19:44;;;;;;;3.08;2.13;;;2.80;99.90;;;;;;5031111;28;20226;-77
2021/11/06 05:22:11;;;;;;;2.28;2.17;;;2.80;99.90;;;;;;5038538;28;20273;-77
2021/11/06 05:24:39;;;;;;;2.28;2.17;;;2.70;99.90;;;;;;5034608;28;20230;-77
2021/11/06 05:27:07;;;;;;;2.60;2.50;;;2.70;99.90;;;;;;5036741;28;20226;-77
2021/11/06 05:29:34;;;;;;;2.70;2.60;;;2.70;99.90;;;;;;5036963;28;20225;-77
2021/11/06 05:32:03;;;;;;;2.47;2.38;;;2.60;99.90;;;;;;5035210;28;20250;-77
2021/11/06 05:34:30;;;;;;;2.55;2.45;;;2.60;99.90;;;;;;5040349;28;20226;-77
2021/11/06 05:36:57;;;;;;;2.42;2.33;;;2.50;99.90;;;;;;5036490;28;20210;-77
2021/11/06 05:39:24;;;;;;;2.55;2.45;;;2.50;99.90;;;;;;5033640;28;20234;-77
2021/11/06 05:41:52;;;;;;;2.63;2.53;;;2.50;99.90;;;;;;5035145;28;20249;-77
2021/11/06 05:44:19;;;;;;;2.47;2.38;;;2.50;99.90;;;;;;5032883;28;20624;-77
2021/11/06 05:46:46;;;;;;;2.75;2.65;;;2.60;99.90;;;;;;5040243;28;20214;-77
2021/11/06 05:49:14;;;;;;;2.65;2.55;;;2.60;99.90;;;;;;5040392;28;20226;-77
2021/11/06 05:51:42;;;;;;;2.70;2.50;;;2.60;99.90;;;;;;5037931;28;20241;-77
2021/11/06 05:54:09;;;;;;;2.50;2.40;;;2.60;99.90;;;;;;5044395;28;20214;-77
2021/11/06 05:56:36;;;;;;;2.67;2.58;;;2.70;99.90;;;;;;5047118;28;20234;-77
2021/11/06 05:59:03;;;;;;;2.80;2.70;;;2.70;99.90;;;;;;5041402;28;20231;-77
2021/11/06 06:01:31;;;;;;;2.30;2.20;;;2.70;99.90;;;;;;5037317;28;20231;-77
2021/11/06 06:03:58;;;;;;;2.38;2.28;;;2.70;99.90;;;;;;5037902;28;20972;-77
2021/11/06 06:06:27;;;;;;;2.30;2.20;;;2.70;99.90;;;;;;5042085;28;20237;-77
2021/11/06 06:08:54;;;;;;;2.33;2.22;;;2.70;99.90;;;;;;5043281;28;20224;-77
2021/11/06 06:11:21;;;;;;;2.60;2.50;;;2.70;99.90;;;;;;5037937;28;20238;-77
2021/11/06 06:13:48;;;;;;;2.40;2.30;;;2.70;99.90;;;;;;5042157;28;20745;-77
2021/11/06 06:16:15;;;;;;;2.60;2.50;;;2.70;99.90;;;;;;5042139;28;20223;-77
2021/11/06 06:18:45;;;;;;;2.67;2.58;;;2.80;99.90;;;;;;5039746;28;20226;-77
2021/11/06 06:21:12;;;;;;;2.65;2.55;;;2.80;99.90;;;;;;5038490;28;20264;-77
2021/11/06 06:23:40;;;;;;;2.88;2.78;;;2.80;99.90;;;;;;5037974;28;20227;-77
2021/11/06 06:26:08;;;;;;;2.17;2.08;;;2.80;99.90;;;;;;5043856;28;20234;-77
2021/11/06 06:28:36;;;;;;;5.05;4.50;;;2.80;99.90;;;;;;5041146;28;20215;-77
2021/11/06 06:31:03;;;;;;;4.32;4.03;;;2.80;99.90;;;;;;5039620;28;20246;-77
2021/11/06 06:33:30;;;;;;;3.40;3.20;;;2.80;99.90;;;;;;5038810;28;20731;-77
2021/11/06 06:35:58;;;;;;;3.83;3.53;;;2.70;99.90;;;;;;5038743;28;20628;-77
2021/11/06 06:38:25;;;;;;;3.38;3.17;;;2.80;99.90;;;;;;5040810;28;20908;-77
2021/11/06 06:40:53;;;;;;;4.72;4.32;;;2.80;99.90;;;;;;5037660;28;20245;-77
2021/11/06 06:43:20;;;;;;;4.60;4.20;;;2.80;99.90;;;;;;5040620;28;20583;-77
2021/11/06 06:45:47;;;;;;;4.55;4.15;;;2.80;99.90;;;;;;5041815;28;20227;-77
2021/11/06 06:48:15;;;;;;;3.67;3.38;;;2.80;99.90;;;;;;5042766;28;20218;-77
2021/11/06 06:50:46;;;;;;;3.72;3.53;;;2.80;99.90;;;;;;5041623;28;20229;-77
2021/11/06 06:53:13;;;;;;;3.20;3.00;;;2.90;99.90;;;;;;5040927;28;20235;-77
2021/11/06 06:55:40;;;;;;;2.95;2.78;;;2.90;99.90;;;;;;5039857;28;20310;-77
2021/11/06 06:58:09;;;;;;;3.05;2.85;;;2.90;99.90;;;;;;5033490;28;20218;-77
2021/11/06 07:00:37;;;;;;;2.80;2.70;;;3.00;99.90;;;;;;5034939;28;20229;-77
2021/11/06 07:03:04;;;;;;;3.03;2.83;;;3.00;99.90;;;;;;4995020;28;20226;-77
2021/11/06 07:05:32;;;;;;;2.50;2.40;;;3.00;99.90;;;;;;5042115;28;20242;-77
2021/11/06 07:07:59;;;;;;;2.88;2.58;;;3.00;99.90;;;;;;5015530;28;20227;-76
2021/11/06 07:10:27;;;;;;;2.85;2.75;;;3.10;99.90;;;;;;5039455;28;20348;-76
2021/11/06 07:12:54;;;;;;;3.00;2.80;;;3.50;99.90;;;;;;5040640;28;20218;-77
2021/11/06 07:15:23;;;;;;;3.40;3.20;;;4.20;99.90;;;;;;5037429;28;20230;-77
2021/11/06 07:17:50;;;;;;;2.97;2.78;;;5.00;99.90;;;;;;5039934;28;20222;-77
2021/11/06 07:20:19;;;;;;;3.00;2.83;;;5.80;99.90;;;;;;5032742;28;20909;-77
2021/11/06 07:22:48;;;;;;;2.80;2.67;;;6.50;99.90;;;;;;5039045;28;20227;-78
2021/11/06 07:25:15;;;;;;;3.15;2.95;;;7.00;99.90;;;;;;5038863;28;20211;-78
2021/11/06 07:27:42;;;;;;;2.90;2.70;;;7.50;99.90;;;;;;5038580;28;20219;-79
2021/11/06 07:30:11;;;;;;;3.05;2.85;;;7.90;99.90;;;;;;5037470;28;20214;-77
2021/11/06 07:32:39;;;;;;;3.28;3.08;;;8.40;99.90;;;;;;5041418;28;20223;-77
2021/11/06 07:35:07;;;;;;;3.40;3.20;;;8.90;99.90;;;;;;5037138;28;20234;-77
2021/11/06 07:37:34;;;;;;;4.05;3.60;;;9.10;99.90;;;;;;5036491;28;20222;-78
2021/11/06 07:40:03;;;;;;;3.10;2.90;;;9.30;99.90;;;;;;5036741;28;20287;-78
2021/11/06 07:42:30;;;;;;;2.80;2.60;;;9.60;99.90;;;;;;5038453;28;20214;-79
2021/11/06 07:44:57;;;;;;;2.70;2.50;;;9.80;99.90;;;;;;5036926;28;20436;-79
2021/11/06 07:47:24;;;;;;;2.70;2.50;;;10.10;99.90;;;;;;5036357;28;20226;-83
2021/11/06 07:49:53;;;;;;;2.60;2.42;;;10.40;99.90;;;;;;5035635;28;20246;-79
2021/11/06 07:52:20;;;;;;;2.13;1.92;;;10.60;99.90;;;;;;5037209;28;20255;-79
2021/11/06 07:54:47;;;;;;;2.40;2.22;;;11.00;99.90;;;;;;5042548;28;20226;-79
2021/11/06 07:57:14;;;;;;;3.85;2.65;;;11.30;99.90;;;;;;5041952;28;20222;-81
2021/11/06 07:59:41;;;;;;;2.20;2.00;;;11.50;99.90;;;;;;5033926;28;20234;-88
2021/11/06 08:02:09;;;;;;;2.50;2.30;;;11.70;99.90;;;;;;5046305;28;20223;-86
2021/11/06 08:04:36;;;;;;;2.30;2.20;;;11.60;99.90;;;;;;5043019;28;20238;-86
2021/11/06 08:07:05;;;;;;;2.22;2.13;;;11.50;99.90;;;;;;5041509;28;20234;-87
2021/11/06 08:09:32;;;;;;;2.88;2.67;;;11.60;99.90;;;;;;5014213;28;20230;-85
2021/11/06 08:11:59;;;;;;;2.72;2.25;;;11.50;99.90;;;;;;5041260;28;20222;-89
2021/11/06 08:14:27;;;;;;;2.45;2.25;;;11.40;99.90;;;;;;5047827;28;20218;-87
2021/11/06 08:16:56;;;;;;;2.35;1.92;;;11.50;99.90;;;;;;5048822;28;20223;-86
2021/11/06 08:19:24;;;;;;;3.25;2.05;;;11.80;99.90;;;;;;5057445;28;20660;-85
2021/11/06 08:21:51;;;;;;;2.30;2.10;;;12.00;99.90;;;;;;5049925;28;20215;-84
2021/11/06 08:24:22;;;;;;;2.25;2.15;;;11.90;99.90;;;;;;5049816;28;20223;-87
2021/11/06 08:26:49;;;;;;;1.92;1.73;;;11.80;99.90;;;;;;5054089;28;20230;-89
2021/11/06 08:29:16;;;;;;;2.13;2.00;;;12.00;99.90;;;;;;5024073;28;20223;-88
2021/11/06 08:31:44;;;;;;;1.90;1.80;;;12.20;99.90;;;;;;5054890;28;20226;-86
2021/11/06 08:34:11;;;;;;;2.05;1.90;;;11.90;99.90;;;;;;5051053;28;20242;-88
2021/11/06 08:36:38;;;;;;;1.98;1.88;;;12.00;99.90;;;;;;5054141;28;20228;-88
2021/11/06 08:39:06;;;;;;;1.98;1.88;;;11.80;99.90;;;;;;5051713;28;20564;-90
2021/11/06 08:41:34;;;;;;;2.05;1.95;;;11.80;99.90;;;;;;5045272;28;20227;-88
2021/11/06 08:44:02;;;;;;;1.70;1.60;;;11.70;99.90;;;;;;5037380;28;20222;-88
2021/11/06 08:46:29;;;;;;;5.57;1.83;;;11.60;99.90;;;;;;5049780;28;20231;-88
2021/11/06 08:48:56;;;;;;;3.50;2.10;;;11.80;99.90;;;;;;5045047;28;20219;-87
2021/11/06 08:51:23;;;;;;;1.60;1.50;;;12.10;99.90;;;;;;5050778;28;20230;-87
2021/11/06 08:53:51;;;;;;;2.13;1.48;;;12.30;99.90;;;;;;5057092;28;20222;-88
2021/11/06 08:56:19;;;;;;;1.80;1.70;;;12.60;99.90;;;;;;5056016;28;20226;-88
2021/11/06 08:58:47;;;;;;;1.42;1.33;;;12.40;99.90;;;;;;5057041;28;20237;-88
2021/11/06 09:01:14;;;;;;;2.60;1.60;;;12.40;99.90;;;;;;5061984;28;20226;-88
2021/11/06 09:03:42;;;;;;;1.80;1.70;;;12.40;99.90;;;;;;5056626;28;20222;-86
2021/11/06 09:06:09;;;;;;;1.63;1.52;;;12.60;99.90;;;;;;5045307;28;20221;-86
2021/11/06 09:08:37;;;;;;;1.80;1.70;;;13.40;99.90;;;;;;5053312;28;20223;-88
2021/11/06 09:11:07;;;;;;;1.77;1.67;;;14.30;99.90;;;;;;5051145;28;20245;-89
2021/11/06 09:13:35;;;;;;;2.00;1.70;;;14.80;99.90;;;;;;5037872;28;20265;-89
2021/11/06 09:16:06;;;;;;;2.03;1.83;;;15.20;99.90;;;;;;5055800;28;20222;-89
2021/11/06 09:18:33;;;;;;;1.80;1.70;;;14.90;99.90;;;;;;5053884;28;20317;-87
2021/11/06 09:21:00;;;;;;;1.80;1.70;;;14.10;99.90;;;;;;5048906;28;20219;-87
2021/11/06 09:23:29;;;;;;;1.52;1.48;;;13.40;99.90;;;;;;5045233;28;20226;-86
2021/11/06 09:25:56;;;;;;;1.95;1.85;;;12.70;99.90;;;;;;5052017;28;20230;-88
2021/11/06 09:28:24;;;;;;;1.80;1.70;;;12.20;99.90;;;;;;5049874;28;20227;-88
2021/11/06 09:30:51;;;;;;;1.80;1.70;;;11.90;99.90;;;;;;5044309;28;20238;-89
2021/11/06 09:33:19;;;;;;;1.92;1.83;;;11.90;99.90;;;;;;5050946;28;20222;-89
2021/11/06 09:35:47;;;;;;;1.95;1.85;;;11.70;99.90;;;;;;5058021;28;20230;-88
2021/11/06 09:38:15;;;;;;;1.65;1.55;;;11.40;99.90;;;;;;5054460;28;20246;-88
2021/11/06 09:40:42;;;;;;;1.52;1.42;;;11.50;99.90;;;;;;5056682;28;20226;-86
2021/11/06 09:43:09;;;;;;;1.83;1.73;;;11.70;99.90;;;;;;5057113;28;20229;-89
2021/11/06 09:45:36;;;;;;;1.80;1.70;;;11.70;99.90;;;;;;5044679;28;20229;-88
2021/11/06 09:48:03;;;;;;;1.48;1.38;;;11.70;99.90;;;;;;5053917;28;20226;-89
2021/11/06 09:50:32;;;;;;;2.13;2.03;;;12.00;99.90;;;;;;5049406;28;20744;-90
2021/11/06 09:53:00;;;;;;;1.85;1.75;;;12.10;99.90;;;;;;5056477;28;20576;-88
2021/11/06 09:55:27;;;;;;;1.67;1.58;;;12.30;99.90;;;;;;5051039;28;20868;-86
2021/11/06 09:57:55;;;;;;;1.77;1.67;;;12.30;99.90;;;;;;5052764;28;20215;-86
2021/11/06 10:00:24;;;;;;;1.75;1.65;;;12.50;99.90;;;;;;5053334;28;20243;-87
2021/11/06 10:02:54;;;;;;;1.48;1.38;;;12.30;99.90;;;;;;5053107;28;20219;-87
2021/11/06 10:05:47;;;;;;;1.90;1.80;;;12.30;99.90;;;;;;5055098;28;20288;-85
2021/11/06 10:08:20;;;;;;;1.63;1.52;;;12.40;99.90;;;;;;5042573;28;20299;-87
2021/11/06 10:10:49;;;;;;;1.80;1.70;;;12.50;99.90;;;;;;5048129;28;20234;-88
2021/11/06 10:13:17;;;;;;;2.22;1.98;;;12.50;99.90;;;;;;5050792;28;20227;-90
2021/11/06 10:15:46;;;;;;;1.90;1.80;;;12.50;99.90;;;;;;5049542;28;20224;-86
2021/11/06 10:18:16;;;;;;;3.03;1.70;;;12.50;99.90;;;;;;5035453;28;20644;-87
2021/11/06 10:20:45;;;;;;;1.88;1.77;;;12.50;99.90;;;;;;5049810;28;20308;-88
2021/11/06 10:23:14;;;;;;;1.85;1.75;;;12.40;99.90;;;;;;5057279;28;20224;-86
2021/11/06 10:25:41;;;;;;;1.90;1.80;;;12.40;99.90;;;;;;5051195;28;20229;-88
2021/11/06 10:28:10;;;;;;;2.30;1.75;;;12.50;99.90;;;;;;5052646;28;20223;-89
2021/11/06 10:30:39;;;;;;;1.95;1.65;;;12.60;99.90;;;;;;5053904;28;20238;-89
2021/11/06 10:33:09;;;;;;;2.35;1.77;;;12.70;99.90;;;;;;5055668;28;20242;-88
2021/11/06 10:35:39;;;;;;;1.77;1.67;;;12.80;99.90;;;;;;5053673;28;20591;-89
2021/11/06 10:38:09;;;;;;;2.35;1.45;;;13.00;99.90;;;;;;5052150;28;20214;-88
2021/11/06 10:40:42;;;;;;;1.77;1.67;;;13.20;99.90;;;;;;5049161;28;20223;-88
2021/11/06 10:43:10;;;;;;;2.42;1.52;;;13.50;99.90;;;;;;5054650;28;20231;-89
2021/11/06 10:45:43;;;;;;;1.70;1.60;;;13.80;99.90;;;;;;5053818;28;20226;-84
2021/11/06 10:48:12;;;;;;;3.67;1.70;;;13.60;99.90;;;;;;5050723;28;20234;-89
2021/11/06 10:50:42;;;;;;;1.60;1.50;;;13.30;99.90;;;;;;5044773;28;20585;-89
2021/11/06 10:53:10;;;;;;;1.75;1.65;;;13.20;99.90;;;;;;5050033;28;20229;-86
2021/11/06 10:55:42;;;;;;;2.53;1.80;;;13.00;99.90;;;;;;5052370;28;20226;-86
2021/11/06 10:58:20;;;;;;;1.80;1.70;;;12.90;99.90;;;;;;5037928;28;20222;-86
2021/11/06 11:00:53;;;;;;;1.70;1.60;;;13.00;99.90;;;;;;5059322;28;20595;-88
2021/11/06 11:03:25;;;;;;;2.30;2.10;;;13.10;99.90;;;;;;5057825;28;20705;-85
2021/11/06 11:05:53;;;;;;;1.90;1.80;;;12.90;99.90;;;;;;5054310;28;20230;-89
2021/11/06 11:08:20;;;;;;;1.70;1.60;;;12.60;99.90;;;;;;5060555;28;20222;-89
2021/11/06 11:10:49;;;;;;;1.45;1.35;;;12.80;99.90;;;;;;5055392;28;20242;-87
2021/11/06 11:13:18;;;;;;;3.40;1.80;;;12.70;99.90;;;;;;5059057;28;20229;-84
2021/11/06 11:15:48;;;;;;;1.60;1.50;;;12.60;99.90;;;;;;5055779;28;20246;-90
2021/11/06 11:18:31;;;;;;;1.73;1.63;;;12.40;99.90;;;;;;5053086;28;20215;-90
2021/11/06 11:21:18;;;;;;;1.65;1.55;;;12.50;99.90;;;;;;5058300;28;20238;-88
2021/11/06 11:23:47;;;;;;;1.70;1.60;;;12.80;99.90;;;;;;5058997;28;20219;-87
2021/11/06 11:26:18;;;;;;;1.90;1.80;;;12.80;99.90;;;;;;5058571;28;20229;-90
2021/11/06 11:28:46;;;;;;;1.60;1.50;;;12.90;99.90;;;;;;5058906;28;20237;-85
2021/11/06 11:31:14;;;;;;;2.60;1.30;;;13.00;99.90;;;;;;5046634;28;20229;-86
2021/11/06 11:33:43;;;;;;;1.80;1.70;;;13.20;99.90;;;;;;5047330;28;20230;-85
2021/11/06 11:36:12;;;;;;;2.17;1.98;;;13.20;99.90;;;;;;5047322;28;20227;-87
2021/11/06 11:38:40;;;;;;;1.90;1.70;;;13.20;99.90;;;;;;5045716;28;20924;-88
2021/11/06 11:41:46;;;;;;;1.30;1.20;;;13.20;99.90;;;;;;5048385;28;20223;-90
2021/11/06 11:44:31;;;;;;;1.77;1.67;;;13.30;99.90;;;;;;5057198;28;20229;-87
2021/11/06 11:47:02;;;;;;;3.47;1.58;;;13.40;99.90;;;;;;5048312;28;20214;-82
2021/11/06 11:49:30;;;;;;;1.48;1.38;;;13.40;99.90;;;;;;5049279;28;20222;-86
2021/11/06 11:51:58;;;;;;;1.60;1.50;;;13.30;99.90;;;;;;5038944;28;20229;-86
2021/11/06 11:54:25;;;;;;;1.50;1.40;;;13.50;99.90;;;;;;5047560;28;20727;-84
2021/11/06 11:57:14;;;;;;;1.92;1.83;;;13.60;99.90;;;;;;5054079;28;20561;-89
2021/11/06 11:59:43;;;;;;;1.60;1.50;;;13.70;99.90;;;;;;5041600;28;20227;-86
2021/11/06 12:02:21;;;;;;;1.73;1.63;;;13.70;99.90;;;;;;5036760;28;20246;-87
2021/11/06 12:04:49;;;;;;;1.50;1.40;;;13.90;99.90;;;;;;5046356;28;20229;-88
2021/11/06 12:07:23;;;;;;;1.42;1.33;;;13.90;99.90;;;;;;5046961;28;20238;-88
2021/11/06 12:09:50;;;;;;;1.63;1.52;;;13.80;99.90;;;;;;5044647;28;20233;-89
2021/11/06 12:12:38;;;;;;;1.60;1.50;;;13.80;99.90;;;;;;5045805;28;20242;-84
2021/11/06 12:15:07;;;;;;;1.70;1.48;;;13.90;99.90;;;;;;5045873;28;20211;-87
2021/11/06 12:17:34;;;;;;;1.35;1.25;;;13.80;99.90;;;;;;5045115;28;20245;-85
2021/11/06 12:20:01;;;;;;;1.83;1.73;;;13.80;99.90;;;;;;5050051;28;20237;-88
2021/11/06 12:22:32;;;;;;;1.50;1.40;;;13.90;99.90;;;;;;5045999;28;20252;-88
2021/11/06 12:25:14;;;;;;;1.42;1.33;;;13.80;99.90;;;;;;5047620;28;20220;-86
2021/11/06 12:27:50;;;;;;;1.42;1.40;;;13.90;99.90;;;;;;5043307;28;20223;-86
2021/11/06 12:30:28;;;;;;;2.38;1.50;;;13.70;99.90;;;;;;5039218;28;20301;-87
2021/11/06 12:32:56;;;;;;;1.77;1.55;;;13.70;99.90;;;;;;5049828;28;20230;-88
2021/11/06 12:35:25;;;;;;;1.98;1.80;;;13.70;99.90;;;;;;5046422;28;20234;-88
2021/11/06 12:38:03;;;;;;;1.55;1.50;;;13.90;99.90;;;;;;5043425;28;20222;-88
2021/11/06 12:40:52;;;;;;;1.38;1.25;;;13.70;99.90;;;;;;5043391;28;20222;-89
2021/11/06 12:43:28;;;;;;;1.30;1.20;;;13.70;99.90;;;;;;5020287;28;20667;-86
2021/11/06 12:46:00;;;;;;;1.27;1.27;;;13.80;99.90;;;;;;5050816;28;20233;-86
2021/11/06 12:48:29;;;;;;;1.48;1.30;;;13.90;99.90;;;;;;5045080;28;20314;-88
2021/11/06 12:51:07;;;;;;;1.60;1.50;;;13.80;99.90;;;;;;5019445;28;20226;-87
2021/11/06 12:53:37;;;;;;;1.45;1.35;;;13.90;99.90;;;;;;5054622;28;20247;-83
2021/11/06 12:56:08;;;;;;;1.15;1.05;;;14.10;99.90;;;;;;5021681;28;20242;-85
2021/11/06 12:58:36;;;;;;;1.50;1.40;;;14.20;99.90;;;;;;5051093;28;20234;-87
2021/11/06 13:01:22;;;;;;;1.40;1.30;;;13.90;99.90;;;;;;5044536;28;20575;-86